GMFF

Details ICAO GMFF (FEZ)
Name SAISS
Region Morocco
Timezone Africa/Casablanca (UTC+0.0)
Plans Departing 20
Arriving 52
Stats Elevation 1,900 ft / 579 m (AMSL)
Location 33.927327° -4.977931°
Runways 1
Magnetic Variation 1.032° W
Sunrise 2017-12-17 07:20:25 UTC / 2017-12-17 07:20:25 Local
Sunset 2017-12-17 17:14:24 UTC / 2017-12-17 17:14:24 Local
Advertisement - Login to hide

Runways

ID Width Length Bearing (true) Bearing (mag) Surface Threshold Offset Overrun Length
09 148 ft / 45 m 10,461 ft / 3,189 m 90.26° 91.29° Asphalt 0 ft / 0 m 197 ft / 60 m
27 148 ft / 45 m 10,461 ft / 3,189 m 270.28° 271.31° Asphalt 820 ft / 250 m 0 ft / 0 m

Map

Weather


0- 5 10 15 20 25 30 35+ Temperature / ° C

Clouds and Precipitation
Forecast for 2017-12-17 12:00 UTC. Updated an hour ago

Ground ~20,000 ft ~40,000 ft Winds

METAR

GMFF 171000Z 05009KT 8000 BKN005 BKN020 11/11 Q1025 NOSIG

TAF

TAF TAF GMFF 170500Z 1706/1812 08004KT 8000 SCT010 BKN030 BECMG 1709/1712 06010KT BECMG 1713/1717 CAVOK

Frequencies

Tower 118.60 MHz TWR
Warning: Do not use this data for real-world aviation or navigation. No guarantee of current accuracy is given.